sensor_id;sensor_type;location;lat;lon;timestamp;pressure;altitude;pressure_sealevel;temperature;humidity
74327;BME280;62745;51.060;13.786;2023-04-25T00:01:13;99424.00;;;9.04;75.23
74327;BME280;62745;51.060;13.786;2023-04-25T00:03:39;99418.91;;;9.10;75.16
74327;BME280;62745;51.060;13.786;2023-04-25T00:06:05;99432.81;;;9.05;75.56
74327;BME280;62745;51.060;13.786;2023-04-25T00:08:31;99422.53;;;8.82;75.81
74327;BME280;62745;51.060;13.786;2023-04-25T00:10:57;99415.91;;;8.71;76.72
74327;BME280;62745;51.060;13.786;2023-04-25T00:13:23;99426.00;;;8.76;77.63
74327;BME280;62745;51.060;13.786;2023-04-25T00:15:50;99417.81;;;8.78;77.10
74327;BME280;62745;51.060;13.786;2023-04-25T00:18:15;99417.84;;;8.91;77.25
74327;BME280;62745;51.060;13.786;2023-04-25T00:20:40;99425.81;;;8.84;76.78
74327;BME280;62745;51.060;13.786;2023-04-25T00:23:15;99419.91;;;9.02;76.74
74327;BME280;62745;51.060;13.786;2023-04-25T00:25:43;99425.03;;;9.10;75.46
74327;BME280;62745;51.060;13.786;2023-04-25T00:28:08;99426.06;;;9.09;75.10
74327;BME280;62745;51.060;13.786;2023-04-25T00:30:33;99420.72;;;9.02;75.88
74327;BME280;62745;51.060;13.786;2023-04-25T00:32:59;99431.97;;;8.98;75.53
74327;BME280;62745;51.060;13.786;2023-04-25T00:35:24;99417.41;;;8.81;76.37
74327;BME280;62745;51.060;13.786;2023-04-25T00:37:49;99416.31;;;8.68;76.15
74327;BME280;62745;51.060;13.786;2023-04-25T00:40:15;99423.09;;;8.64;77.32
74327;BME280;62745;51.060;13.786;2023-04-25T00:42:40;99417.13;;;8.62;77.05
74327;BME280;62745;51.060;13.786;2023-04-25T00:45:07;99416.09;;;8.57;77.09
74327;BME280;62745;51.060;13.786;2023-04-25T00:47:35;99424.72;;;8.59;77.50
74327;BME280;62745;51.060;13.786;2023-04-25T00:50:00;99420.16;;;8.53;77.67
74327;BME280;62745;51.060;13.786;2023-04-25T00:52:26;99407.25;;;8.50;78.11
74327;BME280;62745;51.060;13.786;2023-04-25T00:54:51;99411.75;;;8.49;78.42
74327;BME280;62745;51.060;13.786;2023-04-25T00:57:16;99414.00;;;8.46;78.58
74327;BME280;62745;51.060;13.786;2023-04-25T00:59:45;99418.50;;;8.45;78.52
74327;BME280;62745;51.060;13.786;2023-04-25T01:02:10;99411.53;;;8.44;78.26
74327;BME280;62745;51.060;13.786;2023-04-25T01:04:36;99406.81;;;8.39;78.82
74327;BME280;62745;51.060;13.786;2023-04-25T01:07:01;99398.97;;;8.31;78.74
74327;BME280;62745;51.060;13.786;2023-04-25T01:09:27;99411.84;;;8.28;79.16
74327;BME280;62745;51.060;13.786;2023-04-25T01:11:55;99398.69;;;8.20;79.00
74327;BME280;62745;51.060;13.786;2023-04-25T01:14:20;99417.13;;;8.21;78.32
74327;BME280;62745;51.060;13.786;2023-04-25T01:16:45;99405.47;;;8.22;78.17
74327;BME280;62745;51.060;13.786;2023-04-25T01:19:11;99409.94;;;8.15;78.14
74327;BME280;62745;51.060;13.786;2023-04-25T01:21:37;99407.25;;;8.08;77.90
74327;BME280;62745;51.060;13.786;2023-04-25T01:24:03;99411.09;;;8.06;78.04
74327;BME280;62745;51.060;13.786;2023-04-25T01:26:28;99421.00;;;8.12;77.58
74327;BME280;62745;51.060;13.786;2023-04-25T01:28:54;99404.94;;;7.99;77.42
74327;BME280;62745;51.060;13.786;2023-04-25T01:31:20;99421.94;;;8.04;77.47
74327;BME280;62745;51.060;13.786;2023-04-25T01:33:45;99423.59;;;8.05;76.70
74327;BME280;62745;51.060;13.786;2023-04-25T01:36:10;99419.28;;;8.04;77.15
74327;BME280;62745;51.060;13.786;2023-04-25T01:38:36;99419.88;;;8.00;77.14
74327;BME280;62745;51.060;13.786;2023-04-25T01:41:01;99422.34;;;8.01;76.18
74327;BME280;62745;51.060;13.786;2023-04-25T01:43:27;99413.72;;;7.93;76.64
74327;BME280;62745;51.060;13.786;2023-04-25T01:45:52;99424.34;;;7.93;77.10
74327;BME280;62745;51.060;13.786;2023-04-25T01:48:17;99421.44;;;7.88;77.50
74327;BME280;62745;51.060;13.786;2023-04-25T01:50:44;99414.22;;;7.75;77.60
74327;BME280;62745;51.060;13.786;2023-04-25T01:53:11;99408.84;;;7.68;78.19
74327;BME280;62745;51.060;13.786;2023-04-25T01:55:37;99406.56;;;7.65;78.01
74327;BME280;62745;51.060;13.786;2023-04-25T01:58:03;99409.44;;;7.64;77.72
74327;BME280;62745;51.060;13.786;2023-04-25T02:00:34;99413.72;;;7.65;77.55
74327;BME280;62745;51.060;13.786;2023-04-25T02:02:59;99414.50;;;7.59;78.60
74327;BME280;62745;51.060;13.786;2023-04-25T02:05:24;99413.09;;;7.63;77.57
74327;BME280;62745;51.060;13.786;2023-04-25T02:07:49;99411.41;;;7.55;77.11
74327;BME280;62745;51.060;13.786;2023-04-25T02:10:15;99386.50;;;7.35;77.54
74327;BME280;62745;51.060;13.786;2023-04-25T02:12:40;99412.22;;;7.55;77.01
74327;BME280;62745;51.060;13.786;2023-04-25T02:15:06;99411.59;;;7.53;76.81
74327;BME280;62745;51.060;13.786;2023-04-25T02:17:31;99405.22;;;7.48;77.11
74327;BME280;62745;51.060;13.786;2023-04-25T02:19:56;99412.13;;;7.42;77.40
74327;BME280;62745;51.060;13.786;2023-04-25T02:22:22;99413.97;;;7.42;77.66
74327;BME280;62745;51.060;13.786;2023-04-25T02:24:47;99409.03;;;7.39;77.63
74327;BME280;62745;51.060;13.786;2023-04-25T02:27:12;99407.97;;;7.33;77.89
74327;BME280;62745;51.060;13.786;2023-04-25T02:29:38;99410.41;;;7.35;77.80
74327;BME280;62745;51.060;13.786;2023-04-25T02:32:03;99400.78;;;7.27;78.77
74327;BME280;62745;51.060;13.786;2023-04-25T02:34:28;99401.50;;;7.21;78.45
74327;BME280;62745;51.060;13.786;2023-04-25T02:36:54;99399.88;;;7.20;78.72
74327;BME280;62745;51.060;13.786;2023-04-25T02:39:20;99406.47;;;7.24;77.91
74327;BME280;62745;51.060;13.786;2023-04-25T02:41:47;99403.44;;;7.27;78.18
74327;BME280;62745;51.060;13.786;2023-04-25T02:44:12;99409.13;;;7.24;77.57
74327;BME280;62745;51.060;13.786;2023-04-25T02:46:37;99402.41;;;7.28;76.80
74327;BME280;62745;51.060;13.786;2023-04-25T02:49:02;99410.00;;;7.31;77.25
74327;BME280;62745;51.060;13.786;2023-04-25T02:51:28;99404.69;;;7.31;76.81
74327;BME280;62745;51.060;13.786;2023-04-25T02:53:53;99402.84;;;7.32;76.88
74327;BME280;62745;51.060;13.786;2023-04-25T02:56:18;99407.38;;;7.38;77.23
74327;BME280;62745;51.060;13.786;2023-04-25T02:58:44;99404.56;;;7.39;76.80
74327;BME280;62745;51.060;13.786;2023-04-25T03:01:10;99388.69;;;7.24;76.44
74327;BME280;62745;51.060;13.786;2023-04-25T03:03:35;99406.13;;;7.34;77.00
74327;BME280;62745;51.060;13.786;2023-04-25T03:06:00;99405.00;;;7.21;77.40
74327;BME280;62745;51.060;13.786;2023-04-25T03:08:25;99400.84;;;7.12;78.14
74327;BME280;62745;51.060;13.786;2023-04-25T03:10:54;99390.03;;;6.92;79.36
74327;BME280;62745;51.060;13.786;2023-04-25T03:13:20;99401.28;;;6.94;79.34
74327;BME280;62745;51.060;13.786;2023-04-25T03:15:45;99410.31;;;6.79;80.18
74327;BME280;62745;51.060;13.786;2023-04-25T03:18:11;99410.50;;;6.77;82.09
74327;BME280;62745;51.060;13.786;2023-04-25T03:20:36;99409.00;;;6.53;82.49
74327;BME280;62745;51.060;13.786;2023-04-25T03:23:01;99407.56;;;6.51;83.71
74327;BME280;62745;51.060;13.786;2023-04-25T03:25:26;99390.50;;;6.39;83.75
74327;BME280;62745;51.060;13.786;2023-04-25T03:27:52;99411.88;;;6.37;83.45
74327;BME280;62745;51.060;13.786;2023-04-25T03:30:17;99408.06;;;6.40;83.41
74327;BME280;62745;51.060;13.786;2023-04-25T03:32:42;99404.91;;;6.36;82.78
74327;BME280;62745;51.060;13.786;2023-04-25T03:35:07;99394.78;;;6.40;82.09
74327;BME280;62745;51.060;13.786;2023-04-25T03:37:33;99399.78;;;6.49;82.94
74327;BME280;62745;51.060;13.786;2023-04-25T03:39:58;99407.16;;;6.54;83.83
74327;BME280;62745;51.060;13.786;2023-04-25T03:42:23;99397.16;;;6.34;84.07
74327;BME280;62745;51.060;13.786;2023-04-25T03:44:49;99410.91;;;6.23;84.63
74327;BME280;62745;51.060;13.786;2023-04-25T03:47:14;99406.50;;;6.16;84.98
74327;BME280;62745;51.060;13.786;2023-04-25T03:49:41;99404.03;;;6.14;85.37
74327;BME280;62745;51.060;13.786;2023-04-25T03:52:06;99403.97;;;6.22;84.20
74327;BME280;62745;51.060;13.786;2023-04-25T03:54:31;99410.53;;;6.12;83.43
74327;BME280;62745;51.060;13.786;2023-04-25T03:56:57;99410.16;;;6.29;84.58
74327;BME280;62745;51.060;13.786;2023-04-25T03:59:22;99403.97;;;6.22;83.62
74327;BME280;62745;51.060;13.786;2023-04-25T04:01:47;99401.63;;;6.34;83.33
74327;BME280;62745;51.060;13.786;2023-04-25T04:04:13;99406.09;;;6.48;83.16
74327;BME280;62745;51.060;13.786;2023-04-25T04:06:38;99406.41;;;6.39;84.59
74327;BME280;62745;51.060;13.786;2023-04-25T04:09:03;99415.91;;;6.18;84.72
74327;BME280;62745;51.060;13.786;2023-04-25T04:11:28;99415.22;;;6.10;85.99
74327;BME280;62745;51.060;13.786;2023-04-25T04:13:54;99413.19;;;6.12;85.91
74327;BME280;62745;51.060;13.786;2023-04-25T04:16:19;99399.03;;;5.90;86.28
74327;BME280;62745;51.060;13.786;2023-04-25T04:18:45;99407.97;;;5.89;85.63
74327;BME280;62745;51.060;13.786;2023-04-25T04:21:11;99409.47;;;6.06;85.36
74327;BME280;62745;51.060;13.786;2023-04-25T04:23:36;99397.75;;;6.00;85.68
74327;BME280;62745;51.060;13.786;2023-04-25T04:26:02;99383.13;;;5.90;85.91
74327;BME280;62745;51.060;13.786;2023-04-25T04:28:27;99411.09;;;6.22;84.79
74327;BME280;62745;51.060;13.786;2023-04-25T04:30:53;99393.16;;;6.24;85.40
74327;BME280;62745;51.060;13.786;2023-04-25T04:33:18;99424.22;;;6.45;85.40
74327;BME280;62745;51.060;13.786;2023-04-25T04:35:46;99435.59;;;6.24;86.39
74327;BME280;62745;51.060;13.786;2023-04-25T04:38:12;99416.94;;;6.02;87.90
74327;BME280;62745;51.060;13.786;2023-04-25T04:40:40;99427.09;;;5.99;87.97
74327;BME280;62745;51.060;13.786;2023-04-25T04:43:05;99426.91;;;6.00;89.68
74327;BME280;62745;51.060;13.786;2023-04-25T04:45:31;99439.34;;;6.15;88.38
74327;BME280;62745;51.060;13.786;2023-04-25T04:47:56;99424.66;;;6.48;84.42
74327;BME280;62745;51.060;13.786;2023-04-25T04:50:21;99428.41;;;6.54;84.99
74327;BME280;62745;51.060;13.786;2023-04-25T04:52:46;99427.72;;;6.67;84.61
74327;BME280;62745;51.060;13.786;2023-04-25T04:55:12;99428.31;;;6.62;82.11
74327;BME280;62745;51.060;13.786;2023-04-25T04:57:37;99412.00;;;6.65;87.12
74327;BME280;62745;51.060;13.786;2023-04-25T05:00:04;99435.41;;;6.76;84.46
74327;BME280;62745;51.060;13.786;2023-04-25T05:02:30;99447.09;;;6.82;82.48
74327;BME280;62745;51.060;13.786;2023-04-25T05:04:56;99409.06;;;6.75;82.40
74327;BME280;62745;51.060;13.786;2023-04-25T05:07:21;99421.19;;;7.05;83.59
74327;BME280;62745;51.060;13.786;2023-04-25T05:09:46;99436.72;;;7.23;83.40
74327;BME280;62745;51.060;13.786;2023-04-25T05:12:11;99437.63;;;7.15;82.77
74327;BME280;62745;51.060;13.786;2023-04-25T05:14:37;99424.34;;;7.15;81.47
74327;BME280;62745;51.060;13.786;2023-04-25T05:17:03;99441.06;;;7.31;77.66
74327;BME280;62745;51.060;13.786;2023-04-25T05:19:32;99418.75;;;7.25;76.82
74327;BME280;62745;51.060;13.786;2023-04-25T05:21:57;99428.41;;;7.33;77.29
74327;BME280;62745;51.060;13.786;2023-04-25T05:24:22;99448.16;;;7.51;75.48
74327;BME280;62745;51.060;13.786;2023-04-25T05:26:47;99421.31;;;7.40;75.74
74327;BME280;62745;51.060;13.786;2023-04-25T05:29:13;99441.72;;;7.61;76.24
74327;BME280;62745;51.060;13.786;2023-04-25T05:31:38;99438.63;;;7.57;75.07
74327;BME280;62745;51.060;13.786;2023-04-25T05:34:03;99440.75;;;7.68;75.21
74327;BME280;62745;51.060;13.786;2023-04-25T05:36:28;99423.53;;;7.64;74.63
74327;BME280;62745;51.060;13.786;2023-04-25T05:38:54;99435.75;;;7.87;75.05
74327;BME280;62745;51.060;13.786;2023-04-25T05:41:19;99416.28;;;7.79;74.42
74327;BME280;62745;51.060;13.786;2023-04-25T05:43:45;99426.00;;;7.94;74.26
74327;BME280;62745;51.060;13.786;2023-04-25T05:46:12;99436.00;;;7.92;72.47
74327;BME280;62745;51.060;13.786;2023-04-25T05:48:38;99427.84;;;7.93;72.59
74327;BME280;62745;51.060;13.786;2023-04-25T05:51:03;99437.97;;;8.11;71.89
74327;BME280;62745;51.060;13.786;2023-04-25T05:53:29;99426.03;;;8.00;72.12
74327;BME280;62745;51.060;13.786;2023-04-25T05:55:54;99445.44;;;8.29;71.33
74327;BME280;62745;51.060;13.786;2023-04-25T05:58:19;99444.91;;;8.40;70.93
74327;BME280;62745;51.060;13.786;2023-04-25T06:00:45;99446.34;;;8.42;71.62
74327;BME280;62745;51.060;13.786;2023-04-25T06:03:11;99433.66;;;8.44;71.15
74327;BME280;62745;51.060;13.786;2023-04-25T06:05:37;99451.06;;;8.47;70.74
74327;BME280;62745;51.060;13.786;2023-04-25T06:08:02;99449.38;;;8.39;70.10
74327;BME280;62745;51.060;13.786;2023-04-25T06:10:28;99450.25;;;8.47;69.46
74327;BME280;62745;51.060;13.786;2023-04-25T06:12:53;99452.44;;;8.36;69.31
74327;BME280;62745;51.060;13.786;2023-04-25T06:15:18;99445.03;;;8.32;69.38
74327;BME280;62745;51.060;13.786;2023-04-25T06:17:43;99445.75;;;8.54;70.00
74327;BME280;62745;51.060;13.786;2023-04-25T06:20:09;99445.75;;;8.54;69.50
74327;BME280;62745;51.060;13.786;2023-04-25T06:22:35;99437.13;;;8.45;69.39
74327;BME280;62745;51.060;13.786;2023-04-25T06:25:00;99448.28;;;8.27;69.26
74327;BME280;62745;51.060;13.786;2023-04-25T06:27:25;99446.25;;;8.29;68.61
74327;BME280;62745;51.060;13.786;2023-04-25T06:29:51;99448.81;;;8.51;69.59
74327;BME280;62745;51.060;13.786;2023-04-25T06:32:16;99443.34;;;8.65;69.11
74327;BME280;62745;51.060;13.786;2023-04-25T06:34:43;99449.50;;;8.72;68.83
74327;BME280;62745;51.060;13.786;2023-04-25T06:37:08;99457.97;;;8.83;67.61
74327;BME280;62745;51.060;13.786;2023-04-25T06:39:33;99438.53;;;8.95;67.46
74327;BME280;62745;51.060;13.786;2023-04-25T06:41:59;99453.41;;;8.70;66.05
74327;BME280;62745;51.060;13.786;2023-04-25T06:44:24;99442.13;;;8.68;66.48
74327;BME280;62745;51.060;13.786;2023-04-25T06:46:51;99447.72;;;8.86;66.65
74327;BME280;62745;51.060;13.786;2023-04-25T06:49:16;99449.00;;;8.97;66.48
74327;BME280;62745;51.060;13.786;2023-04-25T06:51:42;99447.31;;;8.83;66.23
74327;BME280;62745;51.060;13.786;2023-04-25T06:54:07;99445.50;;;9.03;66.99
74327;BME280;62745;51.060;13.786;2023-04-25T06:56:32;99449.19;;;9.02;65.71
74327;BME280;62745;51.060;13.786;2023-04-25T06:58:57;99454.34;;;9.10;66.27
74327;BME280;62745;51.060;13.786;2023-04-25T07:01:23;99433.47;;;9.27;66.74
74327;BME280;62745;51.060;13.786;2023-04-25T07:03:48;99447.00;;;9.32;64.38
74327;BME280;62745;51.060;13.786;2023-04-25T07:06:13;99456.84;;;9.31;64.31
74327;BME280;62745;51.060;13.786;2023-04-25T07:08:39;99449.19;;;9.02;63.94
74327;BME280;62745;51.060;13.786;2023-04-25T07:11:04;99444.72;;;9.22;63.92
74327;BME280;62745;51.060;13.786;2023-04-25T07:13:29;99457.25;;;9.35;63.78
74327;BME280;62745;51.060;13.786;2023-04-25T07:15:54;99463.81;;;9.52;63.32
74327;BME280;62745;51.060;13.786;2023-04-25T07:18:20;99459.53;;;9.58;63.85
74327;BME280;62745;51.060;13.786;2023-04-25T07:20:45;99455.81;;;9.26;63.67
74327;BME280;62745;51.060;13.786;2023-04-25T07:23:11;99456.44;;;9.48;63.14
74327;BME280;62745;51.060;13.786;2023-04-25T07:25:36;99452.75;;;9.42;62.65
74327;BME280;62745;51.060;13.786;2023-04-25T07:28:02;99451.50;;;9.38;62.17
74327;BME280;62745;51.060;13.786;2023-04-25T07:30:27;99457.66;;;9.25;62.07
74327;BME280;62745;51.060;13.786;2023-04-25T07:32:52;99452.72;;;9.22;61.88
74327;BME280;62745;51.060;13.786;2023-04-25T07:35:18;99458.69;;;9.44;62.58
74327;BME280;62745;51.060;13.786;2023-04-25T07:37:43;99458.88;;;9.89;61.89
74327;BME280;62745;51.060;13.786;2023-04-25T07:40:08;99442.47;;;9.99;61.80
74327;BME280;62745;51.060;13.786;2023-04-25T07:42:34;99450.72;;;9.57;60.76
74327;BME280;62745;51.060;13.786;2023-04-25T07:45:00;99458.28;;;9.87;61.08
74327;BME280;62745;51.060;13.786;2023-04-25T07:47:25;99462.81;;;9.80;61.34
74327;BME280;62745;51.060;13.786;2023-04-25T07:49:51;99450.47;;;9.85;60.65
74327;BME280;62745;51.060;13.786;2023-04-25T07:52:16;99460.88;;;10.20;61.21
74327;BME280;62745;51.060;13.786;2023-04-25T07:54:41;99450.88;;;10.02;60.23
74327;BME280;62745;51.060;13.786;2023-04-25T07:57:07;99459.09;;;9.81;60.41
74327;BME280;62745;51.060;13.786;2023-04-25T07:59:32;99463.63;;;9.93;60.67
74327;BME280;62745;51.060;13.786;2023-04-25T08:01:57;99460.88;;;10.20;60.48
74327;BME280;62745;51.060;13.786;2023-04-25T08:04:23;99462.78;;;10.26;59.50
74327;BME280;62745;51.060;13.786;2023-04-25T08:06:49;99457.22;;;10.28;58.95
74327;BME280;62745;51.060;13.786;2023-04-25T08:09:15;99470.00;;;10.70;59.08
74327;BME280;62745;51.060;13.786;2023-04-25T08:11:40;99469.66;;;10.53;58.59
74327;BME280;62745;51.060;13.786;2023-04-25T08:14:06;99466.03;;;10.21;59.00
74327;BME280;62745;51.060;13.786;2023-04-25T08:16:32;99484.28;;;10.18;58.30
74327;BME280;62745;51.060;13.786;2023-04-25T08:18:57;99472.00;;;10.04;57.55
74327;BME280;62745;51.060;13.786;2023-04-25T08:21:22;99464.56;;;10.45;58.13
74327;BME280;62745;51.060;13.786;2023-04-25T08:23:47;99482.03;;;10.41;59.13
74327;BME280;62745;51.060;13.786;2023-04-25T08:26:13;99470.75;;;10.19;59.61
74327;BME280;62745;51.060;13.786;2023-04-25T08:28:38;99472.66;;;9.79;61.10
74327;BME280;62745;51.060;13.786;2023-04-25T08:31:03;99478.38;;;9.96;61.49
74327;BME280;62745;51.060;13.786;2023-04-25T08:33:29;99477.91;;;10.39;61.00
74327;BME280;62745;51.060;13.786;2023-04-25T08:35:55;99471.75;;;10.38;59.74
74327;BME280;62745;51.060;13.786;2023-04-25T08:38:20;99484.75;;;9.88;60.48
74327;BME280;62745;51.060;13.786;2023-04-25T08:40:49;99481.44;;;10.00;61.29
74327;BME280;62745;51.060;13.786;2023-04-25T08:43:18;99485.53;;;10.35;61.25
74327;BME280;62745;51.060;13.786;2023-04-25T08:45:44;99494.81;;;10.26;60.38
74327;BME280;62745;51.060;13.786;2023-04-25T08:48:14;99493.13;;;10.32;61.15
74327;BME280;62745;51.060;13.786;2023-04-25T08:50:56;99488.44;;;10.27;62.54
74327;BME280;62745;51.060;13.786;2023-04-25T08:53:26;99497.44;;;10.06;62.27
74327;BME280;62745;51.060;13.786;2023-04-25T08:55:53;99500.75;;;9.95;62.73
74327;BME280;62745;51.060;13.786;2023-04-25T08:58:19;99499.25;;;10.39;62.39
74327;BME280;62745;51.060;13.786;2023-04-25T09:00:46;99492.53;;;10.30;61.32
74327;BME280;62745;51.060;13.786;2023-04-25T09:03:12;99503.22;;;10.30;60.33
74327;BME280;62745;51.060;13.786;2023-04-25T09:05:39;99512.97;;;10.62;60.11
74327;BME280;62745;51.060;13.786;2023-04-25T09:08:05;99517.16;;;10.32;59.64
74327;BME280;62745;51.060;13.786;2023-04-25T09:10:31;99514.88;;;10.35;61.76
74327;BME280;62745;51.060;13.786;2023-04-25T09:13:07;99522.25;;;10.60;60.75
74327;BME280;62745;51.060;13.786;2023-04-25T09:15:53;99511.59;;;10.40;60.37
74327;BME280;62745;51.060;13.786;2023-04-25T09:20:53;99530.66;;;10.57;59.46
74327;BME280;62745;51.060;13.786;2023-04-25T09:23:19;99530.06;;;10.48;59.95
74327;BME280;62745;51.060;13.786;2023-04-25T09:25:47;99519.50;;;10.73;60.60
74327;BME280;62745;51.060;13.786;2023-04-25T09:28:13;99534.78;;;10.52;61.17
74327;BME280;62745;51.060;13.786;2023-04-25T09:30:38;99534.66;;;10.92;60.84
74327;BME280;62745;51.060;13.786;2023-04-25T09:33:08;99544.41;;;10.53;60.11
74327;BME280;62745;51.060;13.786;2023-04-25T09:35:42;99540.56;;;10.16;61.79
74327;BME280;62745;51.060;13.786;2023-04-25T09:38:12;99546.53;;;10.25;62.14
74327;BME280;62745;51.060;13.786;2023-04-25T09:40:44;99549.59;;;10.02;63.32
74327;BME280;62745;51.060;13.786;2023-04-25T09:43:18;99557.59;;;9.82;63.81
74327;BME280;62745;51.060;13.786;2023-04-25T09:45:44;99545.28;;;9.75;64.22
74327;BME280;62745;51.060;13.786;2023-04-25T09:48:11;99550.38;;;9.70;63.41
74327;BME280;62745;51.060;13.786;2023-04-25T09:50:37;99558.63;;;10.01;63.67
74327;BME280;62745;51.060;13.786;2023-04-25T09:53:03;99560.88;;;9.78;63.79
74327;BME280;62745;51.060;13.786;2023-04-25T09:55:29;99561.88;;;9.70;63.03
74327;BME280;62745;51.060;13.786;2023-04-25T09:57:59;99573.53;;;9.43;63.38
74327;BME280;62745;51.060;13.786;2023-04-25T10:00:27;99574.94;;;9.32;64.00
74327;BME280;62745;51.060;13.786;2023-04-25T10:02:54;99565.94;;;9.46;64.31
74327;BME280;62745;51.060;13.786;2023-04-25T10:05:19;99570.50;;;9.59;64.02
74327;BME280;62745;51.060;13.786;2023-04-25T10:07:45;99573.34;;;9.51;64.53
74327;BME280;62745;51.060;13.786;2023-04-25T10:10:12;99571.91;;;9.55;64.51
74327;BME280;62745;51.060;13.786;2023-04-25T10:12:38;99568.69;;;9.99;64.09
74327;BME280;62745;51.060;13.786;2023-04-25T10:15:05;99571.97;;;10.34;62.19
74327;BME280;62745;51.060;13.786;2023-04-25T10:17:33;99576.09;;;10.37;61.07
74327;BME280;62745;51.060;13.786;2023-04-25T10:20:01;99571.78;;;10.22;61.95
74327;BME280;62745;51.060;13.786;2023-04-25T10:22:35;99582.66;;;10.34;61.12
74327;BME280;62745;51.060;13.786;2023-04-25T10:25:02;99581.63;;;10.22;62.11
74327;BME280;62745;51.060;13.786;2023-04-25T10:27:31;99587.81;;;10.29;62.38
74327;BME280;62745;51.060;13.786;2023-04-25T10:30:16;99583.69;;;10.33;62.50
74327;BME280;62745;51.060;13.786;2023-04-25T10:32:43;99589.88;;;10.27;62.71
74327;BME280;62745;51.060;13.786;2023-04-25T10:35:23;99585.06;;;10.69;61.93
74327;BME280;62745;51.060;13.786;2023-04-25T10:38:08;99586.56;;;10.38;61.99
74327;BME280;62745;51.060;13.786;2023-04-25T10:40:34;99583.66;;;10.40;62.36
74327;BME280;62745;51.060;13.786;2023-04-25T10:45:55;99587.75;;;10.55;62.84
74327;BME280;62745;51.060;13.786;2023-04-25T10:48:30;99569.94;;;10.43;61.93
74327;BME280;62745;51.060;13.786;2023-04-25T10:53:34;99590.44;;;10.62;63.05
74327;BME280;62745;51.060;13.786;2023-04-25T10:55:59;99592.94;;;10.31;64.38
74327;BME280;62745;51.060;13.786;2023-04-25T10:58:25;99596.44;;;10.24;63.85
74327;BME280;62745;51.060;13.786;2023-04-25T11:00:51;99592.69;;;9.86;63.83
74327;BME280;62745;51.060;13.786;2023-04-25T11:03:16;99593.06;;;9.63;64.87
74327;BME280;62745;51.060;13.786;2023-04-25T11:05:45;99594.66;;;9.51;66.06
74327;BME280;62745;51.060;13.786;2023-04-25T11:08:11;99602.88;;;9.49;66.99
74327;BME280;62745;51.060;13.786;2023-04-25T11:10:37;99608.00;;;9.44;67.13
74327;BME280;62745;51.060;13.786;2023-04-25T11:13:05;99604.59;;;9.09;68.08
74327;BME280;62745;51.060;13.786;2023-04-25T11:15:30;99600.81;;;8.97;66.98
74327;BME280;62745;51.060;13.786;2023-04-25T11:17:56;99603.91;;;9.00;67.17
74327;BME280;62745;51.060;13.786;2023-04-25T11:20:22;99617.75;;;9.24;67.92
74327;BME280;62745;51.060;13.786;2023-04-25T11:22:49;99618.81;;;9.29;69.08
74327;BME280;62745;51.060;13.786;2023-04-25T11:25:15;99629.81;;;9.13;70.64
74327;BME280;62745;51.060;13.786;2023-04-25T11:27:54;99626.19;;;9.27;70.47
74327;BME280;62745;51.060;13.786;2023-04-25T11:30:21;99634.81;;;9.36;70.28
74327;BME280;62745;51.060;13.786;2023-04-25T11:32:47;99640.59;;;9.46;70.85
74327;BME280;62745;51.060;13.786;2023-04-25T11:35:12;99644.72;;;9.49;70.19
74327;BME280;62745;51.060;13.786;2023-04-25T11:37:42;99636.13;;;9.60;71.33
74327;BME280;62745;51.060;13.786;2023-04-25T11:40:08;99654.00;;;9.73;68.69
74327;BME280;62745;51.060;13.786;2023-04-25T11:42:36;99643.78;;;9.89;67.97
74327;BME280;62745;51.060;13.786;2023-04-25T11:45:03;99648.56;;;10.53;63.01
74327;BME280;62745;51.060;13.786;2023-04-25T11:47:30;99648.78;;;10.59;61.79
74327;BME280;62745;51.060;13.786;2023-04-25T11:49:55;99632.72;;;10.72;60.81
74327;BME280;62745;51.060;13.786;2023-04-25T11:52:20;99658.84;;;10.76;60.46
74327;BME280;62745;51.060;13.786;2023-04-25T11:54:46;99652.22;;;10.99;60.70
74327;BME280;62745;51.060;13.786;2023-04-25T11:57:11;99650.41;;;10.73;60.61
74327;BME280;62745;51.060;13.786;2023-04-25T11:59:36;99642.06;;;11.21;58.46
74327;BME280;62745;51.060;13.786;2023-04-25T12:02:02;99657.25;;;11.33;58.73
74327;BME280;62745;51.060;13.786;2023-04-25T12:04:30;99657.22;;;10.49;60.03
74327;BME280;62745;51.060;13.786;2023-04-25T12:06:55;99648.75;;;10.72;60.92
74327;BME280;62745;51.060;13.786;2023-04-25T12:09:28;99650.03;;;10.49;60.92
74327;BME280;62745;51.060;13.786;2023-04-25T12:11:54;99655.47;;;11.14;61.12
74327;BME280;62745;51.060;13.786;2023-04-25T12:14:25;99655.00;;;11.30;60.51
74327;BME280;62745;51.060;13.786;2023-04-25T12:16:52;99659.47;;;10.65;61.03
74327;BME280;62745;51.060;13.786;2023-04-25T12:19:19;99668.69;;;10.23;61.75
74327;BME280;62745;51.060;13.786;2023-04-25T12:21:45;99654.03;;;9.86;63.49
74327;BME280;62745;51.060;13.786;2023-04-25T12:26:58;99655.84;;;9.65;63.49
74327;BME280;62745;51.060;13.786;2023-04-25T12:29:26;99669.19;;;9.72;61.90
74327;BME280;62745;51.060;13.786;2023-04-25T12:31:53;99656.94;;;10.04;61.30
74327;BME280;62745;51.060;13.786;2023-04-25T12:34:19;99663.88;;;9.85;59.79
74327;BME280;62745;51.060;13.786;2023-04-25T12:36:45;99655.72;;;10.07;59.75
74327;BME280;62745;51.060;13.786;2023-04-25T12:39:29;99653.31;;;10.25;58.97
74327;BME280;62745;51.060;13.786;2023-04-25T12:41:54;99653.94;;;10.27;59.29
74327;BME280;62745;51.060;13.786;2023-04-25T12:44:20;99659.13;;;11.20;57.62
74327;BME280;62745;51.060;13.786;2023-04-25T12:46:45;99653.97;;;11.76;56.06
74327;BME280;62745;51.060;13.786;2023-04-25T12:49:10;99650.41;;;12.20;54.80
74327;BME280;62745;51.060;13.786;2023-04-25T12:51:36;99662.91;;;11.57;54.36
74327;BME280;62745;51.060;13.786;2023-04-25T12:54:03;99663.91;;;11.11;53.74
74327;BME280;62745;51.060;13.786;2023-04-25T12:56:30;99662.13;;;10.39;55.64
74327;BME280;62745;51.060;13.786;2023-04-25T12:58:55;99666.03;;;10.36;57.05
74327;BME280;62745;51.060;13.786;2023-04-25T13:01:21;99650.25;;;10.41;57.10
74327;BME280;62745;51.060;13.786;2023-04-25T13:03:47;99669.69;;;10.09;56.96